Time;durP1;ratioP1;P1;durP2;ratioP2;P2;SDS_P1;SDS_P2;PMS_P1;PMS_P2;Temp;Humidity;BMP_temperature;BMP_pressure;BME280_temperature;BME280_humidity;BME280_pressure;Samples;Min_cycle;Max_cycle;Signal;HPM_P1;HPM_P2
2022/12/18 00:02:20;;;;;;;43.45;24.50;;;;;;;-3.46;100.00;102742.34;5132522;29;20086;-70
2022/12/18 00:04:51;;;;;;;39.90;23.33;;;;;;;-3.49;100.00;102741.47;5128828;29;20028;-71
2022/12/18 00:07:22;;;;;;;45.05;24.88;;;;;;;-3.54;100.00;102735.50;5123624;29;20152;-70
2022/12/18 00:09:53;;;;;;;41.25;24.30;;;;;;;-3.61;100.00;102736.31;5128586;29;20446;-71
2022/12/18 00:12:25;;;;;;;44.60;23.00;;;;;;;-3.60;100.00;102743.13;5133525;29;20516;-70
2022/12/18 00:14:56;;;;;;;41.67;23.08;;;;;;;-3.57;100.00;102744.00;5129811;29;20024;-71
2022/12/18 00:17:27;;;;;;;42.78;23.52;;;;;;;-3.70;100.00;102748.22;5131650;29;20054;-70
2022/12/18 00:19:58;;;;;;;39.75;23.38;;;;;;;-3.70;100.00;102750.78;5133362;29;20202;-70
2022/12/18 00:22:30;;;;;;;38.95;22.58;;;;;;;-3.73;100.00;102731.97;5131490;29;20035;-71
2022/12/18 00:25:01;;;;;;;40.13;23.10;;;;;;;-3.85;100.00;102725.09;5132066;29;20050;-70
2022/12/18 00:27:32;;;;;;;38.50;22.58;;;;;;;-3.86;100.00;102720.84;5133783;29;20070;-70
2022/12/18 00:30:04;;;;;;;37.95;22.30;;;;;;;-3.88;100.00;102704.59;5132635;29;20036;-70
2022/12/18 00:32:35;;;;;;;39.38;23.00;;;;;;;-3.97;100.00;102686.63;5130479;29;20027;-70
2022/12/18 00:35:07;;;;;;;42.00;23.75;;;;;;;-3.91;100.00;102697.75;5133330;29;20032;-70
2022/12/18 00:37:38;;;;;;;37.10;22.25;;;;;;;-3.90;100.00;102701.19;5131639;29;20050;-71
2022/12/18 00:40:10;;;;;;;42.80;24.67;;;;;;;-3.93;100.00;102696.91;5115456;29;20032;-69
2022/12/18 00:45:42;;;;;;;39.33;23.63;;;;;;;-3.93;100.00;102691.78;5118423;29;20071;-69
2022/12/18 00:48:13;;;;;;;41.58;23.55;;;;;;;-3.97;100.00;102692.63;5131033;29;20493;-69
2022/12/18 00:50:45;;;;;;;39.92;24.55;;;;;;;-3.97;100.00;102704.56;5132019;29;20032;-69
2022/12/18 00:53:16;;;;;;;38.47;23.08;;;;;;;-3.99;100.00;102699.41;5130207;29;20027;-70
2022/12/18 00:55:47;;;;;;;38.83;22.08;;;;;;;-4.01;100.00;102692.59;5128785;29;20063;-69
2022/12/18 00:58:19;;;;;;;41.00;23.52;;;;;;;-4.00;100.00;102696.84;5133380;29;20076;-70
2022/12/18 01:00:50;;;;;;;41.28;22.17;;;;;;;-4.13;100.00;102679.69;5132765;29;20020;-69
2022/12/18 01:03:21;;;;;;;43.00;22.83;;;;;;;-4.06;100.00;102705.34;5129647;29;20030;-69
2022/12/18 01:05:53;;;;;;;38.85;22.65;;;;;;;-4.05;100.00;102706.19;5129027;29;20044;-69
2022/12/18 01:08:24;;;;;;;39.67;22.50;;;;;;;-4.10;100.00;102695.09;5134582;29;20024;-70
2022/12/18 01:10:56;;;;;;;38.53;21.77;;;;;;;-4.09;100.00;102702.78;5133968;29;20035;-69
2022/12/18 01:13:27;;;;;;;40.53;23.08;;;;;;;-4.09;100.00;102712.16;5133966;29;20027;-69
2022/12/18 01:15:58;;;;;;;39.33;22.27;;;;;;;-4.10;100.00;102720.69;5136766;29;20027;-70
2022/12/18 01:18:30;;;;;;;36.90;21.75;;;;;;;-4.13;100.00;102711.28;5134583;29;20043;-70
2022/12/18 01:21:06;;;;;;;44.60;23.27;;;;;;;-4.06;100.00;102724.97;5126824;29;20108;-70
2022/12/18 01:23:37;;;;;;;36.55;22.63;;;;;;;-4.26;100.00;102715.47;5130515;29;20036;-69
2022/12/18 01:26:11;;;;;;;37.20;22.08;;;;;;;-4.15;100.00;102730.91;5136218;29;20031;-70
2022/12/18 01:28:46;;;;;;;38.45;22.13;;;;;;;-4.18;100.00;102718.94;5134329;29;20031;-70
2022/12/18 01:31:21;;;;;;;33.63;20.58;;;;;;;-4.22;100.00;102726.56;5133191;29;20028;-69
2022/12/18 01:33:54;;;;;;;37.80;23.13;;;;;;;-4.24;100.00;102718.91;5131490;29;20028;-69
2022/12/18 01:36:34;;;;;;;35.80;21.23;;;;;;;-4.11;100.00;102721.53;5130778;29;20489;-69
2022/12/18 01:39:10;;;;;;;34.50;21.48;;;;;;;-4.19;100.00;102716.38;5132367;29;20028;-68
2022/12/18 01:44:56;;;;;;;36.38;21.67;;;;;;;-4.01;100.00;102720.75;5133565;29;20036;-69
2022/12/18 01:47:40;;;;;;;35.60;20.77;;;;;;;-4.24;100.00;102721.47;5135318;29;20393;-70
2022/12/18 01:50:17;;;;;;;34.47;21.67;;;;;;;-4.16;100.00;102716.41;5133606;29;20093;-70
2022/12/18 01:53:12;;;;;;;37.15;21.10;;;;;;;-4.01;100.00;102710.50;5129914;29;20035;-69
2022/12/18 01:55:51;;;;;;;32.30;18.92;;;;;;;-4.12;100.00;102710.44;5128073;29;20462;-69
2022/12/18 01:58:59;;;;;;;33.63;20.13;;;;;;;-4.01;100.00;102710.50;5131746;29;20031;-69
2022/12/18 02:01:32;;;;;;;37.63;19.92;;;;;;;-4.19;100.00;102701.88;5131408;29;20067;-69
2022/12/18 02:04:22;;;;;;;32.67;19.55;;;;;;;-4.01;100.00;102705.41;5111688;29;20118;-69
2022/12/18 02:07:02;;;;;;;33.63;19.60;;;;;;;-4.08;100.00;102701.09;5114027;29;20043;-70
2022/12/18 02:09:59;;;;;;;32.15;20.75;;;;;;;-4.05;100.00;102693.41;5130224;29;20094;-69
2022/12/18 02:12:57;;;;;;;31.48;18.92;;;;;;;-4.09;100.00;102697.66;5130220;29;20106;-69
2022/12/18 02:15:41;;;;;;;32.80;18.85;;;;;;;-4.06;100.00;102701.94;5132340;29;20031;-70
2022/12/18 02:18:20;;;;;;;34.45;20.17;;;;;;;-4.18;100.00;102698.44;5132150;29;20055;-70
2022/12/18 02:21:26;;;;;;;33.78;20.13;;;;;;;-4.16;100.00;102696.78;5127819;29;20019;-70
2022/12/18 02:24:24;;;;;;;30.98;19.70;;;;;;;-4.12;100.00;102701.91;5131655;29;20055;-69
2022/12/18 02:27:05;;;;;;;31.92;18.48;;;;;;;-4.23;100.00;102701.84;5130453;29;20052;-69
2022/12/18 02:29:44;;;;;;;32.55;19.88;;;;;;;-4.22;100.00;102694.16;5130216;29;20024;-70
2022/12/18 02:32:21;;;;;;;29.88;17.80;;;;;;;-4.23;100.00;102695.03;5132889;29;20477;-70
2022/12/18 02:34:55;;;;;;;31.52;17.95;;;;;;;-4.31;100.00;102694.13;5128756;29;20108;-70
2022/12/18 02:37:28;;;;;;;28.02;18.17;;;;;;;-4.34;100.00;102693.25;5133022;29;20569;-70
2022/12/18 02:40:03;;;;;;;29.33;17.17;;;;;;;-4.35;100.00;102687.28;5132771;29;20027;-69
2022/12/18 02:42:34;;;;;;;30.08;18.05;;;;;;;-4.38;100.00;102687.25;5128365;29;20426;-69
2022/12/18 02:45:06;;;;;;;30.88;18.52;;;;;;;-4.40;100.00;102686.38;5130861;29;20099;-69
2022/12/18 02:47:41;;;;;;;30.10;17.25;;;;;;;-4.43;100.00;102679.53;5129155;29;20047;-69
2022/12/18 02:50:26;;;;;;;30.25;18.13;;;;;;;-4.52;100.00;102676.06;5131951;29;20061;-69
2022/12/18 02:53:36;;;;;;;27.10;17.83;;;;;;;-4.33;100.00;102677.88;5126243;29;20047;-69
2022/12/18 02:56:19;;;;;;;27.45;16.63;;;;;;;-4.40;100.00;102671.00;5131874;29;20742;-69
2022/12/18 02:59:09;;;;;;;31.55;16.90;;;;;;;-4.31;100.00;102667.69;5123150;29;20106;-69
2022/12/18 03:01:56;;;;;;;27.85;17.58;;;;;;;-4.34;100.00;102671.06;5129161;29;20115;-69
2022/12/18 03:04:39;;;;;;;26.85;16.50;;;;;;;-4.42;100.00;102672.72;5127310;29;20768;-69
2022/12/18 03:07:17;;;;;;;28.88;16.00;;;;;;;-4.43;100.00;102660.78;5130285;29;20187;-69
2022/12/18 03:09:51;;;;;;;30.05;17.30;;;;;;;-4.55;100.00;102650.44;5126938;29;20584;-69
2022/12/18 03:12:51;;;;;;;28.65;16.15;;;;;;;-4.35;100.00;102659.13;5132252;29;20079;-70
2022/12/18 03:15:33;;;;;;;27.00;16.73;;;;;;;-4.47;100.00;102646.22;5132287;29;20027;-69
2022/12/18 03:18:10;;;;;;;28.55;16.08;;;;;;;-4.52;100.00;102648.75;5128431;29;20040;-69
2022/12/18 03:20:44;;;;;;;25.27;15.73;;;;;;;-4.58;100.00;102646.19;5131514;29;20114;-69
2022/12/18 03:23:20;;;;;;;26.23;16.10;;;;;;;-4.60;100.00;102650.41;5131603;29;20418;-69
2022/12/18 03:25:56;;;;;;;27.27;16.10;;;;;;;-4.60;100.00;102647.00;5129755;29;20393;-69
2022/12/18 03:28:32;;;;;;;26.83;16.27;;;;;;;-4.61;100.00;102651.28;5132635;29;20035;-69
2022/12/18 03:31:07;;;;;;;27.13;16.05;;;;;;;-4.59;100.00;102654.69;5129143;29;20043;-69
2022/12/18 03:33:45;;;;;;;25.33;15.10;;;;;;;-4.56;100.00;102656.41;5129301;29;20059;-69
2022/12/18 03:36:17;;;;;;;24.42;15.65;;;;;;;-4.66;100.00;102658.03;5129219;29;20059;-69
2022/12/18 03:38:49;;;;;;;28.52;17.08;;;;;;;-4.61;100.00;102665.75;5132290;29;20509;-69
2022/12/18 03:41:32;;;;;;;28.70;16.13;;;;;;;-4.67;100.00;102651.22;5130222;29;20490;-69
2022/12/18 03:44:12;;;;;;;23.23;15.93;;;;;;;-4.70;100.00;102659.75;5130213;29;20079;-69
2022/12/18 03:46:54;;;;;;;33.80;15.90;;;;;;;-4.62;100.00;102653.81;5130360;29;20047;-70
2022/12/18 03:49:38;;;;;;;24.08;15.18;;;;;;;-4.62;100.00;102654.69;5124850;29;20036;-69
2022/12/18 03:52:17;;;;;;;25.95;15.85;;;;;;;-4.71;100.00;102645.22;5129287;29;20072;-70
2022/12/18 03:54:50;;;;;;;24.20;15.07;;;;;;;-4.78;100.00;102637.50;5129861;29;20039;-69
2022/12/18 03:57:25;;;;;;;22.73;14.50;;;;;;;-4.78;100.00;102625.56;5130886;29;20397;-69
2022/12/18 04:00:02;;;;;;;22.92;14.57;;;;;;;-4.72;100.00;102632.44;5130702;29;20765;-69
2022/12/18 04:02:36;;;;;;;25.13;14.70;;;;;;;-4.77;100.00;102616.19;5126868;29;20556;-69
2022/12/18 04:05:09;;;;;;;25.40;15.05;;;;;;;-4.83;100.00;102599.13;5127841;29;20028;-69
2022/12/18 04:07:41;;;;;;;24.60;15.77;;;;;;;-4.82;100.00;102602.53;5130327;29;20040;-69
2022/12/18 04:10:15;;;;;;;24.65;15.52;;;;;;;-4.84;100.00;102605.09;5131979;29;20035;-69
2022/12/18 04:12:46;;;;;;;23.65;14.65;;;;;;;-4.82;100.00;102612.75;5125250;29;20046;-69
2022/12/18 04:15:18;;;;;;;22.63;14.50;;;;;;;-4.80;100.00;102603.41;5128713;29;20020;-69
2022/12/18 04:17:50;;;;;;;25.95;16.27;;;;;;;-4.85;100.00;102589.72;5126019;29;20080;-69
2022/12/18 04:20:21;;;;;;;25.70;15.77;;;;;;;-4.82;100.00;102595.72;5130751;29;20019;-69
2022/12/18 04:22:52;;;;;;;23.58;14.55;;;;;;;-4.82;100.00;102585.47;5130868;29;20036;-69
2022/12/18 04:25:23;;;;;;;23.27;14.23;;;;;;;-4.82;100.00;102585.47;5133265;29;20034;-70
2022/12/18 04:27:55;;;;;;;24.35;14.60;;;;;;;-4.78;100.00;102597.44;5129767;29;20032;-69
2022/12/18 04:30:26;;;;;;;20.60;13.57;;;;;;;-4.78;100.00;102606.81;5128906;29;20028;-69
2022/12/18 04:32:57;;;;;;;23.58;14.57;;;;;;;-4.80;100.00;102606.81;5129193;29;20031;-69
2022/12/18 04:35:29;;;;;;;22.08;14.95;;;;;;;-4.78;100.00;102606.81;5126906;29;20040;-69
2022/12/18 04:38:00;;;;;;;24.83;14.23;;;;;;;-4.77;100.00;102617.06;5129128;29;20066;-69
2022/12/18 04:40:31;;;;;;;23.25;13.40;;;;;;;-4.77;100.00;102618.75;5131790;29;20541;-69
2022/12/18 04:43:04;;;;;;;25.30;14.55;;;;;;;-4.81;100.00;102620.47;5133257;29;20702;-69
2022/12/18 04:45:35;;;;;;;22.88;13.57;;;;;;;-4.83;100.00;102622.13;5135271;29;20156;-70
2022/12/18 04:48:06;;;;;;;22.13;14.00;;;;;;;-4.82;100.00;102626.38;5130731;29;20096;-69
2022/12/18 04:50:38;;;;;;;24.80;15.25;;;;;;;-4.80;100.00;102640.06;5133536;29;20047;-69
2022/12/18 04:53:09;;;;;;;25.55;14.20;;;;;;;-4.78;100.00;102640.06;5132723;29;20513;-69
2022/12/18 04:55:40;;;;;;;22.35;13.60;;;;;;;-4.76;100.00;102641.78;5133906;29;20028;-69
2022/12/18 04:58:11;;;;;;;24.23;14.18;;;;;;;-4.78;100.00;102634.94;5135354;29;20027;-69
2022/12/18 05:00:43;;;;;;;22.38;13.75;;;;;;;-4.78;100.00;102633.25;5133669;29;20028;-69
2022/12/18 05:03:14;;;;;;;20.92;13.60;;;;;;;-4.81;100.00;102637.47;5130954;29;20130;-69
2022/12/18 05:05:49;;;;;;;23.35;13.38;;;;;;;-4.75;100.00;102630.72;5131252;29;20119;-69
2022/12/18 05:08:21;;;;;;;23.65;13.50;;;;;;;-4.86;100.00;102632.31;5128612;29;20051;-69
2022/12/18 05:11:04;;;;;;;22.02;13.38;;;;;;;-4.74;100.00;102639.22;5135618;29;20337;-69
2022/12/18 05:13:36;;;;;;;22.08;13.35;;;;;;;-4.85;100.00;102649.38;5135574;29;20035;-69
2022/12/18 05:16:08;;;;;;;21.02;12.77;;;;;;;-4.85;100.00;102648.50;5135180;29;20024;-69
2022/12/18 05:18:39;;;;;;;23.65;13.38;;;;;;;-4.88;100.00;102651.06;5133057;29;20568;-69
2022/12/18 05:21:11;;;;;;;23.15;13.00;;;;;;;-4.88;100.00;102644.25;5133363;29;20429;-69
2022/12/18 05:23:42;;;;;;;27.35;13.93;;;;;;;-4.92;100.00;102637.41;5135008;29;20495;-69
2022/12/18 05:26:17;;;;;;;20.95;13.13;;;;;;;-4.87;100.00;102635.75;5133153;29;20055;-69
2022/12/18 05:28:48;;;;;;;22.95;13.57;;;;;;;-4.94;100.00;102641.63;5133268;29;20039;-70
2022/12/18 05:31:19;;;;;;;20.17;12.90;;;;;;;-4.93;100.00;102643.34;5116413;29;20385;-69
2022/12/18 05:33:50;;;;;;;21.08;12.75;;;;;;;-4.93;100.00;102635.66;5135785;29;20035;-70
2022/12/18 05:36:22;;;;;;;20.55;12.23;;;;;;;-4.94;100.00;102642.50;5132809;29;20067;-69
2022/12/18 05:38:53;;;;;;;20.27;12.25;;;;;;;-4.92;100.00;102629.75;5131385;29;20032;-70
2022/12/18 05:41:24;;;;;;;19.73;11.48;;;;;;;-4.89;100.00;102627.19;5133225;29;20076;-69
2022/12/18 05:43:55;;;;;;;22.08;12.82;;;;;;;-4.93;100.00;102620.34;5134197;29;20035;-69
2022/12/18 05:46:27;;;;;;;22.35;12.45;;;;;;;-4.95;100.00;102615.22;5135452;29;20027;-69
2022/12/18 05:49:01;;;;;;;21.27;13.07;;;;;;;-4.95;100.00;102614.38;5136424;29;20027;-69
2022/12/18 05:51:32;;;;;;;21.90;12.40;;;;;;;-5.00;100.00;102618.56;5132072;29;20029;-69
2022/12/18 05:54:04;;;;;;;20.58;12.82;;;;;;;-4.97;100.00;102628.81;5130041;29;20087;-69
2022/12/18 05:56:35;;;;;;;22.67;12.15;;;;;;;-4.95;100.00;102611.81;5117914;29;20031;-69
2022/12/18 05:59:06;;;;;;;21.20;12.68;;;;;;;-5.02;100.00;102618.56;5117625;29;20477;-69
2022/12/18 06:01:38;;;;;;;21.15;11.85;;;;;;;-5.03;100.00;102626.25;5130279;29;20047;-69
2022/12/18 06:04:09;;;;;;;22.67;12.30;;;;;;;-5.03;100.00;102616.03;5134625;29;20433;-69
2022/12/18 06:06:40;;;;;;;18.67;12.35;;;;;;;-5.02;100.00;102608.34;5133820;29;20031;-69
2022/12/18 06:09:12;;;;;;;20.15;11.93;;;;;;;-5.01;100.00;102601.53;5133584;29;20036;-69
2022/12/18 06:11:43;;;;;;;21.10;13.38;;;;;;;-5.02;100.00;102618.56;5114854;29;20083;-69
2022/12/18 06:14:17;;;;;;;19.90;12.10;;;;;;;-5.04;100.00;102617.69;5130378;29;20490;-69
2022/12/18 06:16:51;;;;;;;19.42;12.43;;;;;;;-5.00;100.00;102626.25;5132062;29;20039;-69
2022/12/18 06:19:22;;;;;;;20.52;12.50;;;;;;;-5.07;100.00;102619.41;5133436;29;20027;-69
2022/12/18 06:21:53;;;;;;;17.10;11.70;;;;;;;-5.08;100.00;102627.88;5131663;29;20637;-69
2022/12/18 06:24:24;;;;;;;21.77;12.40;;;;;;;-5.11;100.00;102618.50;5133468;29;20426;-69
2022/12/18 06:26:56;;;;;;;20.13;12.20;;;;;;;-5.10;100.00;102619.34;5129155;29;20142;-69
2022/12/18 06:29:27;;;;;;;19.75;12.38;;;;;;;-5.13;100.00;102618.47;5130291;29;20032;-69
2022/12/18 06:31:58;;;;;;;20.88;12.30;;;;;;;-5.09;100.00;102623.63;5132114;29;20036;-69
2022/12/18 06:34:30;;;;;;;19.00;11.98;;;;;;;-5.11;100.00;102618.50;5131421;29;20472;-69
2022/12/18 06:37:01;;;;;;;19.33;12.02;;;;;;;-5.13;100.00;102618.47;5114435;29;20051;-69
2022/12/18 06:39:32;;;;;;;21.40;12.52;;;;;;;-5.17;100.00;102614.19;5133390;29;20043;-69
2022/12/18 06:42:04;;;;;;;16.92;10.82;;;;;;;-5.21;100.00;102607.34;5130630;29;20051;-69
2022/12/18 06:44:35;;;;;;;20.42;12.35;;;;;;;-5.20;100.00;102603.94;5113991;29;20074;-69
2022/12/18 06:47:06;;;;;;;17.33;12.02;;;;;;;-5.21;100.00;102602.22;5132472;29;20621;-69
2022/12/18 06:49:37;;;;;;;21.25;13.68;;;;;;;-5.20;100.00;102593.72;5132847;29;20398;-69
2022/12/18 06:52:09;;;;;;;19.23;12.50;;;;;;;-5.17;100.00;102598.84;5130008;29;20425;-69
2022/12/18 06:54:40;;;;;;;22.67;12.48;;;;;;;-5.15;100.00;102591.22;5133097;29;20525;-69
2022/12/18 06:57:11;;;;;;;20.48;13.20;;;;;;;-5.17;100.00;102596.31;5133146;29;20115;-69
2022/12/18 06:59:42;;;;;;;21.38;12.55;;;;;;;-5.16;100.00;102603.13;5130173;29;20046;-69
2022/12/18 07:02:14;;;;;;;17.60;11.90;;;;;;;-5.13;100.00;102605.69;5129306;29;20099;-70
2022/12/18 07:04:45;;;;;;;20.50;12.50;;;;;;;-5.15;100.00;102602.28;5132014;29;20040;-69
2022/12/18 07:07:16;;;;;;;20.02;12.60;;;;;;;-5.15;100.00;102596.34;5129826;29;20381;-69
2022/12/18 07:09:49;;;;;;;22.55;12.52;;;;;;;-5.18;100.00;102584.38;5128937;29;20032;-69
2022/12/18 07:12:21;;;;;;;21.60;12.98;;;;;;;-5.14;100.00;102586.09;5129916;29;20035;-69
2022/12/18 07:14:52;;;;;;;19.52;11.05;;;;;;;-5.14;100.00;102577.59;5129017;29;20031;-69
2022/12/18 07:17:23;;;;;;;20.85;13.38;;;;;;;-5.17;100.00;102563.09;5131530;29;20031;-69
2022/12/18 07:19:55;;;;;;;22.40;13.43;;;;;;;-5.11;100.00;102567.41;5132484;29;20028;-69
2022/12/18 07:22:26;;;;;;;22.15;12.75;;;;;;;-5.17;100.00;102547.75;5134743;29;20553;-69
2022/12/18 07:24:57;;;;;;;19.90;12.85;;;;;;;-5.10;100.00;102548.66;5126100;29;20073;-69
2022/12/18 07:27:29;;;;;;;20.73;11.85;;;;;;;-5.09;100.00;102539.28;5122093;29;20119;-69
2022/12/18 07:30:00;;;;;;;21.00;12.75;;;;;;;-5.11;100.00;102533.31;5130622;29;20114;-69
2022/12/18 07:32:31;;;;;;;22.52;12.30;;;;;;;-5.08;100.00;102531.63;5127013;29;20031;-69
2022/12/18 07:35:03;;;;;;;22.60;13.13;;;;;;;-5.09;100.00;102526.50;5130279;29;20106;-69
2022/12/18 07:37:34;;;;;;;19.45;11.48;;;;;;;-5.07;100.00;102538.47;5127139;29;20489;-69
2022/12/18 07:40:06;;;;;;;22.40;13.95;;;;;;;-5.07;100.00;102519.72;5130889;29;20082;-69
2022/12/18 07:42:37;;;;;;;22.63;13.75;;;;;;;-5.02;100.00;102530.81;5130591;29;20055;-69
2022/12/18 07:45:09;;;;;;;22.95;13.40;;;;;;;-5.01;100.00;102517.19;5123770;29;20381;-69
2022/12/18 07:47:41;;;;;;;20.85;13.23;;;;;;;-4.93;100.00;102506.16;5131003;29;20122;-69
2022/12/18 07:50:13;;;;;;;23.95;13.77;;;;;;;-4.91;100.00;102507.03;5130820;29;20057;-69
2022/12/18 07:52:44;;;;;;;20.77;13.13;;;;;;;-4.91;100.00;102498.53;5132360;29;20039;-69
2022/12/18 07:55:15;;;;;;;26.42;13.68;;;;;;;-4.88;100.00;102498.56;5125839;29;20430;-69
2022/12/18 07:57:47;;;;;;;23.73;13.63;;;;;;;-4.84;100.00;102494.31;5127776;29;20047;-69
2022/12/18 08:00:18;;;;;;;22.75;15.10;;;;;;;-4.81;100.00;102484.97;5129929;29;20099;-69
2022/12/18 08:02:49;;;;;;;21.02;13.30;;;;;;;-4.74;100.00;102488.38;5129524;29;20055;-69
2022/12/18 08:05:21;;;;;;;25.33;13.93;;;;;;;-4.73;100.00;102501.19;5128551;29;20507;-69
2022/12/18 08:07:53;;;;;;;23.20;13.52;;;;;;;-4.72;100.00;102508.00;5128943;29;20438;-69
2022/12/18 08:10:24;;;;;;;22.38;13.18;;;;;;;-4.64;100.00;102505.47;5127633;29;20127;-69
2022/12/18 08:12:55;;;;;;;22.08;13.68;;;;;;;-4.59;100.00;102508.91;5131037;29;20065;-69
2022/12/18 08:15:27;;;;;;;23.27;14.55;;;;;;;-4.57;100.00;102501.25;5128672;29;20027;-69
2022/12/18 08:17:58;;;;;;;22.25;13.18;;;;;;;-4.54;100.00;102501.28;5123847;29;20708;-69
2022/12/18 08:20:29;;;;;;;22.25;13.57;;;;;;;-4.48;100.00;102506.41;5110975;29;20302;-69
2022/12/18 08:23:00;;;;;;;19.48;12.52;;;;;;;-4.45;100.00;102504.72;5129217;29;20031;-69
2022/12/18 08:25:32;;;;;;;22.65;14.15;;;;;;;-4.41;100.00;102514.09;5129809;29;20067;-69
2022/12/18 08:28:03;;;;;;;22.27;13.98;;;;;;;-4.47;100.00;102492.75;5126827;29;20035;-69
2022/12/18 08:30:35;;;;;;;22.33;13.77;;;;;;;-4.34;100.00;102499.63;5128609;29;20035;-69
2022/12/18 08:33:06;;;;;;;21.42;13.77;;;;;;;-4.28;100.00;102509.03;5125910;29;20027;-69
2022/12/18 08:35:38;;;;;;;21.92;13.02;;;;;;;-4.25;100.00;102509.03;5131765;29;20183;-69
2022/12/18 08:38:09;;;;;;;21.85;13.32;;;;;;;-4.22;100.00;102506.50;5130911;29;20043;-70
2022/12/18 08:46:04;;;;;;;20.50;14.20;;;;;;;-4.09;100.00;102489.47;5113643;29;20040;-70
2022/12/18 08:48:35;;;;;;;22.92;14.50;;;;;;;-4.09;100.00;102469.00;5115057;29;20382;-68
2022/12/18 08:51:06;;;;;;;21.95;13.95;;;;;;;-4.03;100.00;102486.94;5116739;29;20035;-68
2022/12/18 08:53:38;;;;;;;24.02;14.45;;;;;;;-3.96;100.00;102486.94;5099530;29;20469;-68
2022/12/18 08:56:10;;;;;;;22.55;14.70;;;;;;;-3.92;100.00;102496.34;5121861;29;20028;-69
2022/12/18 08:58:42;;;;;;;21.13;13.52;;;;;;;-3.88;100.00;102492.06;5122727;29;20055;-69
2022/12/18 09:01:13;;;;;;;25.30;14.60;;;;;;;-3.89;100.00;102484.41;5120268;29;20096;-69
2022/12/18 09:03:44;;;;;;;21.20;14.07;;;;;;;-3.80;100.00;102477.56;5122357;29;20032;-70
2022/12/18 09:06:18;;;;;;;23.45;14.15;;;;;;;-3.73;100.00;102476.72;5123133;29;20023;-69
2022/12/18 09:08:50;;;;;;;21.02;14.45;;;;;;;-3.73;100.00;102484.41;5119103;29;20036;-70
2022/12/18 09:11:26;;;;;;;22.42;13.93;;;;;;;-3.57;100.00;102497.22;5116554;28;20035;-69
2022/12/18 09:13:59;;;;;;;19.90;13.82;;;;;;;-3.56;100.00;102507.50;5119229;29;20171;-70
2022/12/18 09:16:31;;;;;;;22.10;15.00;;;;;;;-3.52;100.00;102511.75;5119244;29;20032;-71
2022/12/18 09:19:04;;;;;;;22.05;14.50;;;;;;;-3.50;100.00;102504.06;5121910;29;20042;-70
2022/12/18 09:21:35;;;;;;;22.35;14.75;;;;;;;-3.45;100.00;102507.47;5117893;29;20389;-70
2022/12/18 09:24:12;;;;;;;23.80;14.80;;;;;;;-3.35;100.00;102506.63;5118503;29;20028;-70
2022/12/18 09:26:44;;;;;;;22.67;14.48;;;;;;;-3.38;100.00;102498.94;5099105;29;20036;-70
2022/12/18 09:29:15;;;;;;;23.23;14.82;;;;;;;-3.42;100.00;102487.81;5103626;29;20040;-70
2022/12/18 09:31:47;;;;;;;22.42;15.07;;;;;;;-3.30;100.00;102492.09;5120482;29;20032;-70
2022/12/18 09:34:20;;;;;;;22.95;15.25;;;;;;;-3.31;100.00;102475.00;5124125;29;20091;-70
2022/12/18 09:36:52;;;;;;;;;;;;;;;-2.90;100.00;102481.78;5121303;29;20038;-70
2022/12/18 09:39:23;;;;;;;23.92;14.20;;;;;;;-3.17;100.00;102481.84;5121246;29;19926;-70
2022/12/18 09:41:57;;;;;;;22.13;13.95;;;;;;;-3.12;100.00;102480.13;5117979;29;20040;-70
2022/12/18 09:44:33;;;;;;;23.88;14.55;;;;;;;-3.05;100.00;102476.69;5124952;29;20413;-69
2022/12/18 09:47:18;;;;;;;21.73;14.75;;;;;;;-2.96;100.00;102474.09;5124194;29;20032;-69
2022/12/18 09:49:54;;;;;;;19.92;14.00;;;;;;;-2.95;100.00;102470.69;5124504;29;20023;-70
2022/12/18 09:52:34;;;;;;;21.42;13.95;;;;;;;-2.91;100.00;102457.00;5124224;29;20032;-69
2022/12/18 09:55:29;;;;;;;22.40;14.48;;;;;;;-2.84;100.00;102438.19;5125499;29;20120;-69
2022/12/18 09:58:24;;;;;;;23.70;14.80;;;;;;;-2.74;100.00;102451.81;5121750;29;20508;-69
2022/12/18 10:00:55;;;;;;;22.65;14.43;;;;;;;-2.83;100.00;102462.09;5116954;29;20396;-69
2022/12/18 10:03:27;;;;;;;24.58;14.38;;;;;;;-2.73;100.00;102462.06;5119551;29;20032;-70
2022/12/18 10:06:26;;;;;;;21.63;14.55;;;;;;;-2.64;100.00;102452.63;5120377;29;20064;-69
2022/12/18 10:09:07;;;;;;;23.00;15.48;;;;;;;-2.63;100.00;102465.44;5122841;29;20123;-70
2022/12/18 10:12:16;;;;;;;20.98;15.15;;;;;;;-2.38;100.00;102461.06;5123386;29;20042;-70
2022/12/18 10:15:06;;;;;;;22.25;14.95;;;;;;;-2.46;100.00;102461.09;5120254;29;20206;-70
2022/12/18 10:17:45;;;;;;;22.25;13.93;;;;;;;-2.38;100.00;102465.34;5121136;29;20076;-70
2022/12/18 10:20:28;;;;;;;24.70;15.30;;;;;;;-2.26;100.00;102470.41;5123886;29;20088;-71
2022/12/18 10:23:28;;;;;;;22.77;15.90;;;;;;;-2.10;100.00;102460.91;5120497;29;20036;-70
2022/12/18 10:26:09;;;;;;;23.15;15.50;;;;;;;-2.17;100.00;102454.09;5120932;29;20028;-70
2022/12/18 10:28:41;;;;;;;25.00;15.90;;;;;;;-2.24;100.00;102440.44;5119045;29;20947;-71
2022/12/18 10:31:18;;;;;;;24.83;16.20;;;;;;;-2.09;100.00;102453.19;5120733;29;20024;-70
2022/12/18 10:33:50;;;;;;;22.80;14.93;;;;;;;-2.12;100.00;102440.38;5119807;28;20099;-70
2022/12/18 10:36:23;;;;;;;23.73;14.93;;;;;;;-2.05;100.00;102412.91;5119985;29;20028;-71
2022/12/18 10:39:13;;;;;;;;;;;;;;;-1.63;100.00;102414.31;5122954;29;20059;-71
2022/12/18 10:41:45;;;;;;;23.45;15.15;;;;;;;-1.90;100.00;102415.38;5123829;29;19950;-70
2022/12/18 10:44:24;;;;;;;21.95;14.18;;;;;;;-1.76;100.00;102405.00;5124337;29;20089;-70
2022/12/18 10:47:04;;;;;;;19.92;13.73;;;;;;;-1.71;100.00;102401.50;5123232;29;20104;-70
2022/12/18 10:49:36;;;;;;;23.25;14.57;;;;;;;-1.80;100.00;102408.47;5107817;29;20036;-70
2022/12/18 10:52:18;;;;;;;20.95;14.52;;;;;;;-1.71;100.00;102404.09;5123282;29;20430;-70
2022/12/18 10:54:58;;;;;;;22.77;15.05;;;;;;;-1.66;100.00;102401.50;5121923;29;20034;-70
2022/12/18 10:57:31;;;;;;;21.15;14.55;;;;;;;-1.64;100.00;102396.31;5122949;29;20509;-70
2022/12/18 11:00:25;;;;;;;20.75;14.60;;;;;;;-1.42;100.00;102391.84;5122326;29;20032;-70
2022/12/18 11:02:57;;;;;;;;;;;;;;;-1.16;100.00;102381.28;5127051;29;20447;-70
2022/12/18 11:05:31;;;;;;;22.50;13.73;;;;;;;-1.42;100.00;102371.28;5123473;29;19929;-70
2022/12/18 11:08:03;;;;;;;19.27;13.48;;;;;;;-1.45;100.00;102372.16;5124134;29;20036;-70
2022/12/18 11:10:40;;;;;;;22.95;14.05;;;;;;;-1.39;100.00;102368.69;5123650;29;20030;-70
2022/12/18 11:13:20;;;;;;;26.80;14.15;;;;;;;-1.31;100.00;102382.28;5125094;29;20130;-70
2022/12/18 11:15:52;;;;;;;20.67;14.70;;;;;;;-1.33;100.00;102389.16;5123453;29;20032;-70
2022/12/18 11:18:33;;;;;;;20.77;13.95;;;;;;;-1.17;100.00;102390.72;5123128;29;20508;-71
2022/12/18 11:21:11;;;;;;;22.25;14.23;;;;;;;-1.20;100.00;102382.19;5122260;29;20028;-71
2022/12/18 11:24:00;;;;;;;19.83;13.95;;;;;;;-1.04;100.00;102363.97;5122785;29;20123;-71
2022/12/18 11:26:36;;;;;;;22.35;14.55;;;;;;;-1.09;100.00;102360.63;5124048;28;20040;-70
2022/12/18 11:29:10;;;;;;;21.23;14.52;;;;;;;-1.06;100.00;102352.00;5123125;29;20374;-70
2022/12/18 11:31:42;;;;;;;21.33;14.27;;;;;;;-1.07;100.00;102355.44;5121753;29;20126;-70
2022/12/18 11:34:31;;;;;;;19.63;13.48;;;;;;;-0.88;100.00;102356.91;5122107;29;20606;-70
2022/12/18 11:37:04;;;;;;;18.83;12.80;;;;;;;-0.98;100.00;102357.91;5123649;29;20099;-70
2022/12/18 11:39:40;;;;;;;20.45;14.18;;;;;;;-0.86;100.00;102357.75;5120258;29;20084;-70
2022/12/18 11:42:23;;;;;;;21.50;14.55;;;;;;;-0.77;100.00;102349.91;5121619;29;20070;-70
2022/12/18 11:44:59;;;;;;;20.83;13.77;;;;;;;-0.78;100.00;102355.94;5119784;28;20040;-70
2022/12/18 11:47:56;;;;;;;21.15;13.90;;;;;;;-0.62;100.00;102348.84;5119339;29;20119;-70
2022/12/18 11:50:55;;;;;;;18.90;13.65;;;;;;;-0.60;100.00;102336.81;5120798;29;20035;-70